Time;durP1;ratioP1;P1;durP2;ratioP2;P2;SDS_P1;SDS_P2;PMS_P1;PMS_P2;Temp;Humidity;BMP_temperature;BMP_pressure;BME280_temperature;BME280_humidity;BME280_pressure;Samples;Min_cycle;Max_cycle;Signal;HPM_P1;HPM_P2
2023/08/01 04:00:59;;;;;;;1.47;1.07;;;17.90;99.90;;;;;;5826147;22;20862;-73
2023/08/01 04:03:27;;;;;;;0.70;0.20;;;17.90;99.90;;;;;;5055480;28;20923;-73
2023/08/01 04:05:55;;;;;;;0.70;0.37;;;17.80;99.90;;;;;;5057808;28;20510;-72
2023/08/01 04:08:23;;;;;;;0.60;0.20;;;17.80;99.90;;;;;;5055052;28;20469;-75
2023/08/01 04:10:51;;;;;;;2.50;0.93;;;17.80;1.00;;;;;;5062781;28;20480;-72
2023/08/01 04:13:19;;;;;;;3.60;1.10;;;17.70;1.00;;;;;;5069000;28;20499;-72
2023/08/01 04:15:47;;;;;;;1.50;1.33;;;17.70;1.00;;;;;;5069699;28;20952;-72
2023/08/01 04:18:16;;;;;;;1.07;1.00;;;17.80;1.00;;;;;;5068134;28;20971;-73
2023/08/01 04:20:44;;;;;;;1.93;1.30;;;17.80;1.00;;;;;;5070646;28;20499;-73
2023/08/01 04:23:11;;;;;;;2.03;1.83;;;17.80;1.00;;;;;;5070735;28;20475;-72
2023/08/01 04:25:42;;;;;;;0.90;0.60;;;17.70;1.00;;;;;;5069979;28;20956;-72
2023/08/01 04:28:09;;;;;;;1.33;1.17;;;17.70;1.00;;;;;;5070840;28;20518;-73
2023/08/01 04:30:38;;;;;;;2.83;2.20;;;17.70;1.00;;;;;;5070647;28;20918;-72
2023/08/01 04:33:06;;;;;;;0.77;0.40;;;17.80;1.00;;;;;;5069801;28;20456;-72
2023/08/01 04:35:35;;;;;;;1.03;0.50;;;17.80;1.00;;;;;;5068938;28;20449;-71
2023/08/01 04:38:03;;;;;;;1.43;0.90;;;17.80;1.00;;;;;;5062494;28;20529;-74
2023/08/01 04:40:31;;;;;;;1.00;0.90;;;17.80;1.00;;;;;;5068915;28;20579;-73
2023/08/01 04:42:58;;;;;;;2.07;1.60;;;17.80;1.00;;;;;;5073925;28;20873;-73
2023/08/01 04:45:27;;;;;;;1.23;0.80;;;;;;;;;;5066661;28;20445;-74
2023/08/01 04:47:55;;;;;;;1.47;0.60;;;17.80;1.00;;;;;;5066786;28;20571;-73
2023/08/01 04:50:23;;;;;;;3.03;0.53;;;17.70;1.00;;;;;;5073143;28;20488;-75
2023/08/01 04:52:52;;;;;;;1.30;0.50;;;17.90;1.00;;;;;;5072692;28;20455;-72
2023/08/01 04:55:20;;;;;;;0.83;0.20;;;17.80;1.00;;;;;;5078174;28;20527;-72
2023/08/01 04:57:48;;;;;;;0.60;0.10;;;17.80;1.00;;;;;;5073838;28;20535;-73
2023/08/01 05:00:16;;;;;;;1.57;0.30;;;17.80;1.00;;;;;;5073519;28;20437;-72
2023/08/01 05:02:44;;;;;;;1.00;0.77;;;17.80;1.00;;;;;;5074064;28;20561;-72
2023/08/01 05:05:12;;;;;;;1.37;0.30;;;17.90;1.00;;;;;;5053351;28;20445;-73
2023/08/01 05:07:39;;;;;;;0.60;0.10;;;17.90;1.00;;;;;;5066239;28;20895;-73
2023/08/01 05:10:09;;;;;;;8.03;6.30;;;17.90;1.00;;;;;;5073160;28;20536;-73
2023/08/01 05:12:37;;;;;;;1.53;0.70;;;18.00;1.00;;;;;;5073898;28;20547;-74
2023/08/01 05:15:06;;;;;;;3.73;0.43;;;18.10;1.00;;;;;;5073312;28;20457;-72
2023/08/01 05:17:34;;;;;;;1.20;0.50;;;18.10;1.00;;;;;;5073255;28;20445;-72
2023/08/01 05:20:04;;;;;;;0.60;0.20;;;18.10;1.00;;;;;;5073459;28;20451;-73
2023/08/01 05:22:32;;;;;;;0.60;0.20;;;18.10;1.00;;;;;;5073228;28;20464;-73
2023/08/01 05:25:00;;;;;;;0.60;0.10;;;18.10;99.90;;;;;;5072583;28;20995;-73
2023/08/01 05:27:29;;;;;;;5.70;1.27;;;18.00;99.90;;;;;;5072590;28;20448;-75
2023/08/01 05:29:57;;;;;;;0.70;0.30;;;18.00;99.90;;;;;;5073953;28;20520;-72
2023/08/01 05:32:24;;;;;;;1.03;0.80;;;17.90;99.90;;;;;;5072567;28;20559;-73
2023/08/01 05:34:53;;;;;;;0.70;0.33;;;;;;;;;;5068538;28;21025;-75
2023/08/01 05:37:21;;;;;;;0.90;0.73;;;17.80;99.90;;;;;;5072688;28;21073;-73
2023/08/01 05:39:49;;;;;;;3.30;0.40;;;17.80;1.00;;;;;;5073299;28;20441;-74
2023/08/01 05:42:16;;;;;;;1.50;1.40;;;17.70;1.00;;;;;;5071413;28;21046;-75
2023/08/01 05:44:46;;;;;;;1.27;0.60;;;17.70;1.00;;;;;;5074934;28;20515;-74
2023/08/01 05:47:14;;;;;;;1.93;1.17;;;17.70;1.00;;;;;;5075204;28;20512;-73
2023/08/01 05:49:42;;;;;;;0.70;0.50;;;17.60;1.00;;;;;;5074759;28;20539;-71
2023/08/01 05:52:09;;;;;;;1.60;1.10;;;17.70;1.00;;;;;;5056198;28;20489;-73
2023/08/01 05:54:37;;;;;;;0.70;0.47;;;17.70;1.00;;;;;;5067448;28;20908;-73
2023/08/01 05:57:06;;;;;;;7.43;3.63;;;17.70;1.00;;;;;;5072953;28;20453;-73
2023/08/01 05:59:34;;;;;;;4.73;4.10;;;17.70;1.00;;;;;;5073595;28;20514;-74
2023/08/01 06:02:04;;;;;;;0.70;0.30;;;17.60;1.00;;;;;;5072548;28;20503;-74
2023/08/01 06:04:32;;;;;;;0.60;0.20;;;17.50;1.00;;;;;;5072645;28;20489;-73
2023/08/01 06:07:00;;;;;;;2.37;1.70;;;17.50;1.00;;;;;;5071335;28;20932;-74
2023/08/01 06:09:28;;;;;;;1.17;0.80;;;17.40;1.00;;;;;;5072544;28;20449;-73
2023/08/01 06:11:56;;;;;;;0.60;0.30;;;17.50;1.00;;;;;;5072004;28;20530;-73
2023/08/01 06:14:24;;;;;;;0.93;0.40;;;17.50;1.00;;;;;;5071909;28;20563;-73
2023/08/01 06:16:52;;;;;;;1.53;0.60;;;17.50;1.00;;;;;;5072204;28;20448;-74
2023/08/01 06:19:21;;;;;;;1.23;0.93;;;17.50;1.00;;;;;;5072209;28;20532;-73
2023/08/01 06:21:49;;;;;;;1.73;1.40;;;17.50;1.00;;;;;;5071660;28;20532;-72
2023/08/01 06:24:17;;;;;;;0.60;0.20;;;17.50;99.90;;;;;;5067595;28;20453;-73
2023/08/01 06:26:44;;;;;;;2.70;1.23;;;17.50;99.90;;;;;;5071521;28;20465;-73
2023/08/01 06:29:12;;;;;;;0.77;0.33;;;17.50;99.90;;;;;;5069852;28;20534;-70
2023/08/01 06:31:40;;;;;;;1.77;1.53;;;17.50;99.90;;;;;;5068263;28;20512;-70
2023/08/01 06:34:08;;;;;;;0.60;0.20;;;17.60;99.90;;;;;;5071246;28;20457;-71
2023/08/01 06:36:37;;;;;;;0.60;0.10;;;17.60;99.90;;;;;;5070733;28;20484;-72
2023/08/01 06:39:06;;;;;;;0.60;0.10;;;17.80;99.90;;;;;;5079710;28;20543;-73
2023/08/01 06:41:34;;;;;;;0.60;0.10;;;17.90;99.90;;;;;;5072269;28;20467;-71
2023/08/01 06:44:01;;;;;;;0.60;0.10;;;18.00;99.90;;;;;;5074414;28;20536;-71
2023/08/01 06:46:29;;;;;;;0.60;0.10;;;18.10;99.90;;;;;;5073910;28;20458;-72
2023/08/01 06:48:57;;;;;;;0.60;0.10;;;18.10;99.90;;;;;;5074675;28;20467;-72
2023/08/01 06:51:25;;;;;;;0.60;0.20;;;18.10;99.90;;;;;;5089717;28;20476;-71
2023/08/01 06:53:54;;;;;;;0.60;0.10;;;18.10;99.90;;;;;;5077678;28;20459;-73
2023/08/01 06:56:22;;;;;;;0.60;0.20;;;18.10;99.90;;;;;;5077633;28;20465;-73
2023/08/01 06:58:50;;;;;;;0.60;0.10;;;18.20;74.50;;;;;;5081381;28;20957;-72
2023/08/01 07:01:19;;;;;;;0.60;0.10;;;18.30;1.00;;;;;;5089828;28;21014;-72
2023/08/01 07:03:46;;;;;;;0.60;0.20;;;18.20;5.90;;;;;;5062042;28;20449;-72
2023/08/01 07:06:14;;;;;;;0.60;0.10;;;18.30;1.00;;;;;;5070082;28;20444;-71
2023/08/01 07:08:42;;;;;;;0.60;0.10;;;20.30;1.00;;;;;;5069802;28;20445;-71
2023/08/01 07:11:11;;;;;;;0.60;0.20;;;18.40;1.00;;;;;;5069850;28;20472;-71
2023/08/01 07:13:39;;;;;;;0.60;0.10;;;18.30;1.00;;;;;;5070444;28;20488;-72
2023/08/01 07:16:07;;;;;;;0.60;0.20;;;18.40;1.00;;;;;;5070189;28;20445;-71
2023/08/01 07:18:35;;;;;;;0.60;0.10;;;18.40;1.00;;;;;;5070750;28;20480;-70
2023/08/01 07:21:03;;;;;;;0.60;0.10;;;18.40;1.00;;;;;;5069569;28;20482;-70
2023/08/01 07:23:35;;;;;;;0.60;0.10;;;18.40;1.00;;;;;;5069590;28;20441;-72
2023/08/01 07:26:03;;;;;;;0.60;0.10;;;18.30;1.00;;;;;;5089955;28;20467;-69
2023/08/01 07:28:33;;;;;;;0.60;0.10;;;18.20;1.00;;;;;;5084928;28;20468;-70
2023/08/01 07:31:01;;;;;;;0.60;0.10;;;18.30;1.00;;;;;;5070802;28;20981;-71
2023/08/01 07:33:29;;;;;;;0.60;0.30;;;18.20;1.00;;;;;;5070280;28;20500;-72
2023/08/01 07:35:57;;;;;;;0.60;0.20;;;18.20;1.00;;;;;;5070283;28;20480;-70
2023/08/01 07:38:26;;;;;;;0.60;0.10;;;18.20;1.00;;;;;;5071377;28;20544;-70
2023/08/01 07:40:55;;;;;;;0.60;0.10;;;18.20;1.00;;;;;;5070253;28;21034;-71
2023/08/01 07:43:24;;;;;;;0.60;0.10;;;18.20;1.00;;;;;;5075149;28;20540;-71
2023/08/01 07:45:56;;;;;;;0.60;0.10;;;18.30;1.00;;;;;;5067795;28;20870;-71
2023/08/01 07:48:24;;;;;;;0.60;0.30;;;18.30;1.00;;;;;;5065363;28;20481;-72
2023/08/01 07:50:53;;;;;;;0.60;0.20;;;18.10;1.00;;;;;;5070439;28;20480;-71
2023/08/01 07:53:21;;;;;;;0.60;0.20;;;18.00;1.00;;;;;;5070011;28;20844;-71
2023/08/01 07:55:53;;;;;;;0.60;0.10;;;18.00;1.00;;;;;;5070457;28;20440;-71
2023/08/01 07:58:20;;;;;;;0.60;0.20;;;18.00;1.00;;;;;;5070380;28;20538;-75
2023/08/01 08:00:48;;;;;;;0.60;0.20;;;17.90;99.90;;;;;;5070731;28;20473;-70
2023/08/01 08:03:18;;;;;;;0.60;0.10;;;17.90;99.90;;;;;;5069989;28;20453;-73
2023/08/01 08:05:46;;;;;;;0.60;0.10;;;17.90;99.90;;;;;;5058407;28;20449;-71
2023/08/01 08:08:15;;;;;;;0.83;0.67;;;18.00;99.90;;;;;;5053613;28;20524;-73
2023/08/01 08:10:43;;;;;;;0.60;0.30;;;18.10;99.90;;;;;;5061761;28;20534;-71
2023/08/01 08:13:11;;;;;;;0.60;0.20;;;18.10;99.90;;;;;;5074224;28;20501;-72
2023/08/01 08:15:39;;;;;;;0.60;0.13;;;18.10;99.90;;;;;;5065592;28;20531;-72
2023/08/01 08:18:07;;;;;;;0.67;0.30;;;18.20;99.90;;;;;;5073194;28;20548;-72
2023/08/01 08:20:44;;;;;;;0.80;0.33;;;18.20;99.90;;;;;;5073754;28;20543;-72
2023/08/01 08:23:13;;;;;;;0.60;0.10;;;18.40;99.90;;;;;;5073858;28;20515;-73
2023/08/01 08:25:41;;;;;;;0.70;0.50;;;18.40;99.90;;;;;;5063635;28;20455;-72
2023/08/01 08:28:09;;;;;;;0.60;0.10;;;18.50;99.90;;;;;;5062752;28;20485;-74
2023/08/01 08:30:37;;;;;;;0.60;0.10;;;18.70;99.90;;;;;;5069189;28;20561;-72
2023/08/01 08:33:06;;;;;;;0.60;0.10;;;18.80;99.90;;;;;;5073020;28;20583;-73
2023/08/01 08:35:36;;;;;;;0.60;0.10;;;18.90;99.90;;;;;;5072812;28;20450;-72
2023/08/01 08:38:05;;;;;;;0.60;0.10;;;18.90;99.90;;;;;;5073451;28;20522;-72
2023/08/01 08:40:33;;;;;;;0.60;0.10;;;18.90;99.90;;;;;;5070808;28;20477;-71
2023/08/01 08:43:03;;;;;;;0.60;0.10;;;19.00;99.90;;;;;;5082492;28;20445;-71
2023/08/01 08:45:35;;;;;;;0.60;0.10;;;19.10;99.90;;;;;;5080333;28;20498;-71
2023/08/01 08:48:09;;;;;;;2.40;1.80;;;19.20;99.90;;;;;;5084648;28;20936;-73
2023/08/01 08:50:39;;;;;;;0.60;0.10;;;19.30;99.90;;;;;;5084584;28;20478;-71
2023/08/01 08:53:12;;;;;;;0.60;0.10;;;19.40;99.90;;;;;;5068880;28;20480;-71
2023/08/01 08:55:41;;;;;;;0.60;0.10;;;19.40;99.90;;;;;;5068707;28;20986;-72
2023/08/01 08:58:09;;;;;;;0.60;0.17;;;19.60;99.90;;;;;;5078770;28;20510;-70
2023/08/01 09:00:38;;;;;;;0.60;0.10;;;19.60;99.90;;;;;;5073375;28;20529;-72
2023/08/01 09:03:05;;;;;;;0.60;0.10;;;19.70;99.90;;;;;;5076101;28;20485;-72
2023/08/01 09:05:45;;;;;;;0.60;0.10;;;19.80;99.90;;;;;;5079452;28;20456;-72
2023/08/01 09:08:18;;;;;;;0.60;0.10;;;19.90;99.90;;;;;;5066302;28;20448;-72
2023/08/01 09:10:46;;;;;;;0.60;0.10;;;20.00;99.90;;;;;;5078619;28;20552;-72
2023/08/01 09:13:15;;;;;;;0.83;0.37;;;;;;;;;;5078227;28;20568;-74
2023/08/01 09:15:44;;;;;;;0.60;0.30;;;20.00;99.90;;;;;;5083585;28;20465;-72
2023/08/01 09:18:13;;;;;;;0.60;0.10;;;20.10;99.90;;;;;;5076886;28;20455;-72
2023/08/01 09:20:46;;;;;;;0.60;0.10;;;20.10;99.90;;;;;;5076437;28;20501;-72
2023/08/01 09:23:15;;;;;;;0.60;0.20;;;20.20;99.90;;;;;;5075715;28;20454;-73
2023/08/01 09:25:43;;;;;;;0.60;0.13;;;20.20;99.90;;;;;;5075307;28;20448;-72
2023/08/01 09:28:18;;;;;;;0.60;0.20;;;20.20;99.90;;;;;;5074653;28;20480;-72
2023/08/01 09:30:51;;;;;;;0.60;0.10;;;20.40;99.90;;;;;;5073595;28;20491;-73
2023/08/01 09:33:19;;;;;;;0.60;0.10;;;20.40;99.90;;;;;;5076866;28;20478;-72
2023/08/01 09:35:50;;;;;;;0.60;0.20;;;20.40;99.90;;;;;;5079459;28;20472;-73
2023/08/01 09:38:19;;;;;;;0.60;0.10;;;20.50;99.90;;;;;;5072777;28;20457;-72
2023/08/01 09:40:49;;;;;;;0.70;0.30;;;20.60;99.90;;;;;;5092044;28;20980;-73
2023/08/01 09:43:17;;;;;;;0.60;0.10;;;;;;;;;;5077158;28;20552;-73
2023/08/01 09:45:52;;;;;;;0.60;0.10;;;20.80;99.90;;;;;;5081554;28;20496;-73
2023/08/01 09:48:25;;;;;;;0.60;0.20;;;20.80;99.90;;;;;;5079145;28;20825;-72
2023/08/01 09:51:05;;;;;;;0.60;0.20;;;20.90;99.90;;;;;;5075934;28;20473;-72
2023/08/01 09:53:34;;;;;;;0.70;0.40;;;21.00;99.90;;;;;;5080176;28;20489;-73
2023/08/01 09:56:03;;;;;;;0.60;0.10;;;21.10;99.90;;;;;;5066760;28;20534;-72
2023/08/01 09:58:35;;;;;;;0.60;0.10;;;21.20;99.90;;;;;;5076489;28;20848;-74
2023/08/01 10:01:03;;;;;;;0.60;0.20;;;21.20;99.90;;;;;;5074481;28;20480;-72
2023/08/01 10:03:31;;;;;;;0.60;0.10;;;21.10;99.90;;;;;;5079817;28;20939;-71
2023/08/01 10:06:01;;;;;;;0.60;0.10;;;21.00;99.90;;;;;;5086177;28;20465;-72
2023/08/01 10:08:32;;;;;;;0.60;0.10;;;21.00;99.90;;;;;;5074533;28;20506;-70
2023/08/01 10:11:01;;;;;;;0.60;0.20;;;21.10;99.90;;;;;;5076038;28;20470;-71
2023/08/01 10:13:30;;;;;;;0.60;0.10;;;21.10;99.90;;;;;;5077782;28;20560;-72
2023/08/01 10:15:58;;;;;;;0.70;0.47;;;21.10;99.90;;;;;;5075605;28;20450;-71
2023/08/01 10:18:27;;;;;;;0.60;0.10;;;21.20;99.90;;;;;;5085295;28;20446;-73
2023/08/01 10:20:55;;;;;;;0.60;0.20;;;21.20;99.90;;;;;;5085007;28;20580;-70
2023/08/01 10:23:25;;;;;;;0.60;0.10;;;21.20;99.90;;;;;;5079903;28;20517;-72
2023/08/01 10:25:54;;;;;;;0.60;0.10;;;21.00;99.90;;;;;;5072356;28;20540;-71
2023/08/01 10:28:32;;;;;;;0.60;0.17;;;20.90;99.90;;;;;;5073249;28;20457;-71
2023/08/01 10:31:10;;;;;;;0.60;0.10;;;20.80;99.90;;;;;;5069647;28;20667;-72
2023/08/01 10:33:39;;;;;;;1.17;0.50;;;20.70;99.90;;;;;;5081274;28;20490;-72
2023/08/01 10:36:14;;;;;;;0.90;0.67;;;20.80;99.90;;;;;;5081889;28;20476;-70
2023/08/01 10:38:48;;;;;;;0.60;0.20;;;21.00;99.90;;;;;;5069198;28;20511;-70
2023/08/01 10:41:20;;;;;;;0.90;0.30;;;21.10;99.40;;;;;;5068852;28;20978;-71
2023/08/01 10:43:48;;;;;;;0.60;0.20;;;;;;;;;;5067642;28;20525;-71
2023/08/01 10:46:16;;;;;;;1.23;0.53;;;21.40;97.00;;;;;;5076560;28;20453;-70
2023/08/01 10:48:52;;;;;;;0.60;0.10;;;21.50;93.80;;;;;;5072128;28;20476;-71
2023/08/01 10:51:20;;;;;;;0.80;0.30;;;21.60;91.00;;;;;;5079003;28;20934;-71
2023/08/01 10:53:49;;;;;;;0.80;0.63;;;21.50;84.80;;;;;;5075626;28;20531;-72
2023/08/01 10:56:19;;;;;;;1.57;0.67;;;21.50;82.80;;;;;;5085847;28;20444;-72
2023/08/01 10:58:48;;;;;;;0.60;0.20;;;21.60;80.50;;;;;;5072457;28;20542;-71
2023/08/01 11:01:16;;;;;;;0.60;0.10;;;21.70;85.60;;;;;;5071797;28;20599;-73
2023/08/01 11:03:44;;;;;;;0.60;0.20;;;21.60;90.00;;;;;;5087219;28;20964;-72
2023/08/01 11:06:12;;;;;;;0.60;0.20;;;21.60;96.10;;;;;;5042451;28;20475;-75
2023/08/01 11:08:43;;;;;;;0.60;0.10;;;21.60;94.90;;;;;;5015902;28;20466;-71
2023/08/01 11:11:14;;;;;;;1.77;0.97;;;21.60;94.60;;;;;;5025941;28;20476;-70
2023/08/01 11:13:51;;;;;;;0.60;0.10;;;21.60;95.70;;;;;;5014211;28;20480;-71
2023/08/01 11:16:19;;;;;;;0.60;0.30;;;21.60;96.60;;;;;;5012273;28;20528;-71
2023/08/01 11:18:47;;;;;;;0.60;0.10;;;21.60;86.90;;;;;;5024559;28;20514;-72
2023/08/01 11:21:27;;;;;;;1.10;0.73;;;21.50;76.80;;;;;;5017473;28;20555;-70
2023/08/01 11:23:55;;;;;;;0.60;0.10;;;;;;;;;;5002472;28;20531;-68
2023/08/01 11:26:25;;;;;;;0.60;0.20;;;21.50;79.80;;;;;;5023323;28;20437;-65
2023/08/01 11:28:52;;;;;;;1.93;0.40;;;21.60;82.20;;;;;;5022770;28;20500;-69
2023/08/01 11:31:20;;;;;;;0.70;0.30;;;21.70;77.00;;;;;;5013881;28;20490;-65
2023/08/01 11:33:56;;;;;;;0.60;0.20;;;21.80;75.00;;;;;;5015146;28;20479;-68
2023/08/01 11:36:27;;;;;;;0.80;0.40;;;21.70;72.00;;;;;;5016686;28;20468;-68
2023/08/01 11:38:58;;;;;;;1.43;0.37;;;21.50;78.40;;;;;;5023192;28;20444;-68
2023/08/01 11:41:28;;;;;;;0.60;0.20;;;21.50;77.70;;;;;;5014974;28;20476;-66
2023/08/01 11:43:56;;;;;;;0.60;0.10;;;21.70;83.30;;;;;;5014187;28;20443;-69
2023/08/01 11:46:31;;;;;;;1.07;0.57;;;21.70;92.20;;;;;;5014724;28;20471;-74
2023/08/01 11:48:59;;;;;;;0.67;0.40;;;21.60;52.20;;;;;;5015776;28;20451;-74
2023/08/01 11:51:28;;;;;;;0.73;0.30;;;21.50;53.20;;;;;;5034611;28;20576;-73
2023/08/01 11:54:02;;;;;;;0.60;0.20;;;;;;;;;;5036273;28;20518;-72
2023/08/01 11:56:32;;;;;;;0.70;0.27;;;21.50;52.80;;;;;;5024350;28;20454;-72
2023/08/01 11:59:00;;;;;;;0.70;0.30;;;21.50;53.90;;;;;;5020644;28;20440;-73
2023/08/01 12:01:29;;;;;;;0.60;0.20;;;21.60;52.10;;;;;;5039579;28;21034;-73
2023/08/01 12:03:58;;;;;;;0.70;0.23;;;21.70;66.00;;;;;;5040194;28;20800;-73
2023/08/01 12:06:26;;;;;;;0.60;0.10;;;21.60;61.10;;;;;;5025510;28;20456;-73
2023/08/01 12:08:54;;;;;;;0.60;0.20;;;21.60;64.00;;;;;;5018428;28;20453;-72
2023/08/01 12:11:23;;;;;;;1.50;1.40;;;21.90;50.90;;;;;;5031754;28;20463;-73
2023/08/01 12:14:03;;;;;;;4.73;1.33;;;22.00;52.10;;;;;;5015227;28;20467;-74
2023/08/01 12:16:31;;;;;;;0.60;0.20;;;22.00;62.70;;;;;;5014715;28;20456;-73
2023/08/01 12:18:59;;;;;;;0.60;0.10;;;22.00;63.40;;;;;;5015505;28;20484;-72
2023/08/01 12:21:28;;;;;;;0.60;0.23;;;21.90;54.40;;;;;;5035726;28;20519;-73
2023/08/01 12:23:56;;;;;;;0.60;0.10;;;21.90;60.50;;;;;;5038560;28;20471;-73
2023/08/01 12:26:25;;;;;;;0.60;0.10;;;21.90;71.40;;;;;;5024894;28;20454;-74
2023/08/01 12:28:53;;;;;;;0.60;0.10;;;22.10;74.00;;;;;;5018316;28;20448;-76
2023/08/01 12:31:23;;;;;;;0.60;0.17;;;22.20;66.30;;;;;;5034691;28;20465;-73
2023/08/01 12:33:52;;;;;;;0.60;0.10;;;22.30;74.60;;;;;;5028482;28;20452;-74
2023/08/01 12:36:21;;;;;;;0.60;0.20;;;22.20;62.00;;;;;;5013340;28;20477;-75
2023/08/01 12:38:49;;;;;;;0.60;0.10;;;22.20;66.30;;;;;;5034446;28;20522;-77
2023/08/01 12:41:17;;;;;;;0.60;0.10;;;22.00;58.50;;;;;;5031509;28;20611;-75
2023/08/01 12:43:45;;;;;;;0.60;0.10;;;22.00;67.60;;;;;;5018459;28;20457;-74
2023/08/01 12:46:13;;;;;;;0.60;0.10;;;21.80;58.70;;;;;;5024123;28;20502;-74
2023/08/01 12:48:42;;;;;;;0.60;0.10;;;21.80;63.30;;;;;;5035254;28;20451;-73
2023/08/01 12:51:10;;;;;;;0.60;0.10;;;21.60;80.10;;;;;;5018181;28;20567;-74
2023/08/01 12:53:39;;;;;;;0.60;0.30;;;21.30;99.90;;;;;;5016100;28;20508;-73
2023/08/01 12:56:08;;;;;;;1.63;1.50;;;21.00;99.90;;;;;;5014900;28;20486;-75
2023/08/01 12:58:36;;;;;;;0.60;0.20;;;20.90;99.90;;;;;;5013584;28;20524;-77
2023/08/01 13:01:04;;;;;;;0.60;0.10;;;20.80;99.90;;;;;;5017020;28;20485;-75
2023/08/01 13:03:32;;;;;;;0.60;0.10;;;;;;;;;;5012379;28;20444;-74
2023/08/01 13:06:02;;;;;;;0.60;0.13;;;20.50;99.90;;;;;;5012464;28;20456;-73
2023/08/01 13:08:30;;;;;;;0.70;0.20;;;;;;;;;;5014062;28;20449;-74
2023/08/01 13:11:00;;;;;;;0.60;0.20;;;20.30;99.90;;;;;;5013828;28;20588;-74
2023/08/01 13:13:29;;;;;;;0.60;0.10;;;20.40;99.90;;;;;;5014261;28;20452;-73
2023/08/01 13:15:58;;;;;;;0.60;0.20;;;20.60;99.90;;;;;;5013086;28;20477;-75
2023/08/01 13:18:26;;;;;;;2.70;0.50;;;20.60;99.90;;;;;;5013322;28;20938;-73
2023/08/01 13:20:54;;;;;;;0.60;0.30;;;20.80;99.90;;;;;;5014757;28;20460;-74
2023/08/01 13:23:23;;;;;;;0.60;0.20;;;21.00;99.90;;;;;;5012591;28;20445;-74
2023/08/01 13:25:51;;;;;;;0.60;0.10;;;21.20;99.90;;;;;;5015142;28;20444;-73
2023/08/01 13:28:18;;;;;;;0.60;0.20;;;21.20;99.90;;;;;;5012916;28;20532;-74
2023/08/01 13:30:46;;;;;;;0.60;0.10;;;21.40;99.90;;;;;;5008695;28;20472;-71
2023/08/01 13:33:14;;;;;;;0.60;0.20;;;21.50;99.90;;;;;;5011763;28;20452;-72
2023/08/01 13:35:42;;;;;;;0.60;0.23;;;;;;;;;;5012477;28;20531;-70
2023/08/01 13:38:10;;;;;;;0.60;0.10;;;21.70;99.90;;;;;;5011432;28;21068;-71
2023/08/01 13:40:39;;;;;;;0.60;0.20;;;22.00;99.90;;;;;;5011724;28;20885;-70
2023/08/01 13:43:10;;;;;;;0.60;0.10;;;22.10;99.90;;;;;;5018325;28;20488;-71
2023/08/01 13:45:38;;;;;;;0.60;0.10;;;22.20;99.90;;;;;;5020022;28;20476;-71
2023/08/01 13:48:07;;;;;;;0.60;0.17;;;22.30;92.80;;;;;;5014451;28;20459;-72
2023/08/01 13:50:35;;;;;;;0.60;0.20;;;22.10;92.50;;;;;;5025698;28;20554;-72
2023/08/01 13:53:03;;;;;;;0.60;0.20;;;22.10;98.40;;;;;;5011106;28;20929;-75
2023/08/01 13:55:33;;;;;;;0.90;0.63;;;;;;;;;;5014741;28;20484;-74
2023/08/01 13:58:03;;;;;;;0.60;0.10;;;;;;;;;;5012574;28;22218;-75
2023/08/01 14:00:31;;;;;;;0.60;0.20;;;;;;;;;;5017911;28;20549;-75
2023/08/01 14:02:59;;;;;;;0.60;0.10;;;;;;;;;;5031277;28;20793;-74
2023/08/01 14:05:28;;;;;;;0.60;0.20;;;;;;;;;;5013531;28;20856;-75
2023/08/01 14:07:56;;;;;;;0.60;0.20;;;;;;;;;;5029121;28;20448;-76
2023/08/01 14:10:24;;;;;;;0.70;0.20;;;;;;;;;;4997540;28;20522;-75
2023/08/01 14:12:53;;;;;;;0.60;0.10;;;;;;;;;;5019536;28;20439;-74
2023/08/01 14:15:22;;;;;;;0.60;0.10;;;;;;;;;;5032292;28;20895;-74
2023/08/01 14:17:52;;;;;;;0.60;0.10;;;;;;;;;;5026752;28;21646;-74
2023/08/01 14:20:21;;;;;;;0.80;0.30;;;;;;;;;;5028131;28;20840;-75
2023/08/01 14:22:49;;;;;;;0.60;0.13;;;;;;;;;;5022078;28;20996;-76
2023/08/01 14:25:17;;;;;;;0.60;0.10;;;;;;;;;;5023815;28;20451;-75
2023/08/01 14:27:45;;;;;;;0.60;0.10;;;;;;;;;;5024229;28;20499;-76
2023/08/01 14:30:13;;;;;;;0.60;0.10;;;;;;;;;;5027319;28;20457;-75
2023/08/01 14:32:43;;;;;;;0.60;0.10;;;;;;;;;;5014503;28;20485;-73
2023/08/01 14:35:11;;;;;;;0.60;0.10;;;;;;;;;;5023501;28;20490;-73
2023/08/01 14:37:42;;;;;;;0.60;0.10;;;;;;;;;;5031283;28;20454;-76
2023/08/01 14:40:10;;;;;;;0.60;0.10;;;;;;;;;;5016015;28;20930;-75
2023/08/01 14:42:38;;;;;;;0.60;0.20;;;;;;;;;;5015826;28;20671;-75
2023/08/01 14:45:09;;;;;;;0.60;0.10;;;;;;;;;;5012763;28;20447;-75
2023/08/01 14:47:38;;;;;;;1.00;0.40;;;;;;;;;;5029663;28;20464;-73
2023/08/01 14:50:08;;;;;;;0.60;0.20;;;;;;;;;;5011328;28;20968;-74
2023/08/01 14:52:36;;;;;;;1.80;0.77;;;;;;;;;;4999988;28;20493;-74
2023/08/01 14:55:04;;;;;;;0.60;0.10;;;;;;;;;;5016134;28;20468;-72
2023/08/01 14:57:33;;;;;;;0.80;0.60;;;;;;;;;;5011668;28;20476;-71
2023/08/01 15:00:01;;;;;;;0.83;0.60;;;;;;;;;;5011926;28;20475;-73
2023/08/01 15:02:29;;;;;;;0.60;0.10;;;;;;;;;;5012307;28;20483;-72
2023/08/01 15:04:59;;;;;;;0.77;0.33;;;;;;;;;;5016002;28;20472;-73
2023/08/01 15:07:29;;;;;;;1.03;0.67;;;;;;;;;;5012011;28;20519;-72
2023/08/01 15:09:57;;;;;;;1.00;0.40;;;;;;;;;;5001065;28;20461;-68
2023/08/01 15:12:26;;;;;;;0.60;0.10;;;;;;;;;;5012073;28;20897;-73
2023/08/01 15:14:54;;;;;;;0.60;0.10;;;;;;;;;;5022442;28;20524;-74
2023/08/01 15:17:22;;;;;;;0.80;0.50;;;;;;;;;;5030691;28;20478;-71
2023/08/01 15:19:51;;;;;;;1.30;0.40;;;;;;;;;;5024951;28;20459;-73
2023/08/01 15:22:20;;;;;;;1.07;0.70;;;20.70;92.50;;;;;;5009075;28;20563;-69
2023/08/01 15:24:49;;;;;;;0.60;0.10;;;20.70;98.00;;;;;;5013440;28;20537;-71
2023/08/01 15:27:17;;;;;;;0.60;0.10;;;20.90;94.30;;;;;;5012018;28;20441;-73
2023/08/01 15:29:47;;;;;;;0.60;0.20;;;;;;;;;;5012812;28;21007;-73
2023/08/01 15:32:15;;;;;;;0.60;0.20;;;21.60;93.30;;;;;;5022120;28;20460;-74
2023/08/01 15:34:42;;;;;;;0.73;0.27;;;21.60;92.60;;;;;;5023674;28;20551;-72
2023/08/01 15:37:11;;;;;;;0.60;0.10;;;21.60;75.80;;;;;;5019131;28;20477;-74
2023/08/01 15:39:39;;;;;;;0.70;0.47;;;21.40;69.80;;;;;;5015549;28;20525;-71
2023/08/01 15:42:08;;;;;;;0.70;0.30;;;21.10;61.30;;;;;;5015462;28;20531;-72
2023/08/01 15:44:36;;;;;;;0.60;0.20;;;21.00;68.70;;;;;;5015836;28;20442;-72
2023/08/01 15:47:04;;;;;;;0.60;0.10;;;20.90;67.10;;;;;;5018755;28;20452;-72
2023/08/01 15:49:32;;;;;;;0.60;0.10;;;20.90;73.30;;;;;;5013414;28;20437;-72
2023/08/01 15:52:00;;;;;;;0.70;0.30;;;20.90;71.60;;;;;;5018936;28;20469;-73
2023/08/01 15:56:59;;;;;;;0.70;0.20;;;;;;;;;;5007163;28;20493;-72
2023/08/01 15:59:29;;;;;;;1.40;0.40;;;20.80;79.00;;;;;;5010100;28;20946;-73
2023/08/01 16:01:56;;;;;;;0.60;0.10;;;20.90;78.90;;;;;;5010309;28;20529;-70
2023/08/01 16:04:24;;;;;;;0.90;0.23;;;20.90;76.80;;;;;;5009440;28;20451;-71
2023/08/01 16:06:52;;;;;;;0.60;0.20;;;20.80;76.00;;;;;;5010841;28;20448;-71
2023/08/01 16:09:20;;;;;;;1.70;0.57;;;20.90;81.30;;;;;;5010995;28;20485;-71
2023/08/01 16:11:48;;;;;;;1.00;0.40;;;20.90;75.40;;;;;;5011108;28;20532;-72
2023/08/01 16:14:16;;;;;;;0.60;0.30;;;;;;;;;;5011130;28;20915;-72
2023/08/01 16:17:07;;;;;;;0.60;0.10;;;21.10;79.10;;;;;;5010522;28;20472;-74
2023/08/01 16:19:34;;;;;;;1.00;0.40;;;21.30;80.70;;;;;;5010823;28;20456;-72
2023/08/01 16:22:02;;;;;;;0.60;0.10;;;;;;;;;;5010992;28;20460;-75
2023/08/01 16:24:30;;;;;;;0.70;0.27;;;21.80;75.80;;;;;;5011524;28;20481;-72
2023/08/01 16:26:58;;;;;;;0.60;0.20;;;22.00;71.80;;;;;;5010196;28;20436;-74
2023/08/01 16:29:26;;;;;;;0.60;0.20;;;22.10;66.60;;;;;;5015776;28;20875;-69
2023/08/01 16:31:54;;;;;;;0.60;0.20;;;22.00;66.90;;;;;;4995249;28;20452;-72
2023/08/01 16:34:23;;;;;;;0.90;0.20;;;22.30;69.50;;;;;;4994474;28;20449;-72
2023/08/01 16:36:51;;;;;;;2.20;1.20;;;;;;;;;;4994505;28;21037;-70
2023/08/01 16:39:19;;;;;;;0.60;0.10;;;22.70;70.10;;;;;;4994732;28;20510;-71
2023/08/01 16:41:47;;;;;;;0.60;0.10;;;;;;;;;;4994802;28;20452;-74
2023/08/01 16:44:15;;;;;;;0.60;0.20;;;;;;;;;;5020193;28;20886;-73
2023/08/01 16:46:43;;;;;;;0.60;0.10;;;22.50;56.80;;;;;;5033862;28;20506;-73
2023/08/01 16:49:11;;;;;;;0.60;0.10;;;;;;;;;;5022684;28;20487;-72
2023/08/01 16:51:51;;;;;;;0.67;0.27;;;22.10;54.70;;;;;;5014302;28;20445;-72
2023/08/01 16:54:19;;;;;;;1.00;0.43;;;21.80;64.00;;;;;;5013983;28;20537;-71
2023/08/01 16:56:47;;;;;;;0.80;0.60;;;21.80;68.80;;;;;;5013420;28;20508;-71
2023/08/01 16:59:15;;;;;;;0.60;0.10;;;21.80;70.50;;;;;;5003085;28;20458;-71
2023/08/01 17:01:43;;;;;;;0.60;0.10;;;;;;;;;;4994471;28;20457;-72
2023/08/01 17:04:11;;;;;;;0.60;0.20;;;21.60;73.20;;;;;;4994608;28;20448;-72
2023/08/01 17:06:39;;;;;;;0.60;0.10;;;21.40;76.70;;;;;;4993818;28;20473;-73
2023/08/01 17:09:09;;;;;;;0.60;0.30;;;21.30;76.90;;;;;;4994470;28;20535;-73
2023/08/01 17:11:38;;;;;;;0.70;0.30;;;21.20;76.30;;;;;;4994732;28;20453;-71
2023/08/01 17:14:06;;;;;;;0.70;0.20;;;21.00;77.60;;;;;;4994221;28;20453;-71
2023/08/01 17:16:34;;;;;;;1.67;1.13;;;20.70;76.50;;;;;;4993886;28;20469;-72
2023/08/01 17:19:03;;;;;;;0.60;0.17;;;20.70;82.30;;;;;;4994401;28;20556;-72